Time;durP1;ratioP1;P1;durP2;ratioP2;P2;SDS_P1;SDS_P2;PMS_P1;PMS_P2;Temp;Humidity;BMP_temperature;BMP_pressure;BME280_temperature;BME280_humidity;BME280_pressure;Samples;Min_cycle;Max_cycle;Signal;HPM_P1;HPM_P2
2022/05/18 00:00:34;;;;;;;9.30;5.00;;;18.50;99.90;;;;;;5046412;28;20429;-83
2022/05/18 00:03:22;;;;;;;5.03;3.63;;;18.40;99.90;;;;;;5061120;28;20409;-84
2022/05/18 00:06:07;;;;;;;4.70;4.27;;;18.40;99.90;;;;;;5062248;28;20397;-83
2022/05/18 00:08:52;;;;;;;7.53;4.80;;;18.50;99.90;;;;;;5062174;28;20429;-83
2022/05/18 00:11:36;;;;;;;4.60;3.87;;;18.60;99.90;;;;;;5061911;28;20405;-83
2022/05/18 00:14:22;;;;;;;7.00;3.83;;;18.50;99.90;;;;;;5060229;28;20382;-81
2022/05/18 00:17:07;;;;;;;5.37;4.10;;;18.30;99.90;;;;;;5061228;28;20377;-83
2022/05/18 00:19:51;;;;;;;7.07;4.10;;;18.30;99.90;;;;;;5060942;28;20440;-83
2022/05/18 00:22:55;;;;;;;13.73;4.20;;;18.30;99.90;;;;;;5073850;28;20518;-83
2022/05/18 00:25:41;;;;;;;3.50;3.23;;;18.30;99.90;;;;;;5059597;28;20453;-82
2022/05/18 00:28:26;;;;;;;3.33;2.97;;;18.40;99.90;;;;;;5059476;28;20386;-83
2022/05/18 00:31:13;;;;;;;11.90;2.77;;;18.10;99.90;;;;;;5059665;28;20429;-83
2022/05/18 00:33:57;;;;;;;4.70;3.77;;;18.10;99.90;;;;;;5044817;28;20476;-83
2022/05/18 00:36:42;;;;;;;3.83;3.20;;;18.20;99.90;;;;;;5059924;28;20394;-83
2022/05/18 00:39:27;;;;;;;4.47;3.40;;;18.30;99.90;;;;;;5058500;28;20806;-83
2022/05/18 00:42:21;;;;;;;4.90;3.40;;;18.50;99.90;;;;;;5044706;28;20441;-82
2022/05/18 00:45:06;;;;;;;10.13;3.90;;;18.70;99.90;;;;;;5059744;28;20457;-83
2022/05/18 00:47:51;;;;;;;7.03;4.20;;;18.70;99.90;;;;;;5045277;28;20406;-83
2022/05/18 00:50:37;;;;;;;9.33;3.80;;;18.80;99.90;;;;;;5060394;28;20401;-83
2022/05/18 00:53:27;;;;;;;4.33;3.93;;;18.80;99.90;;;;;;5063944;28;20390;-83
2022/05/18 00:56:18;;;;;;;5.73;3.43;;;18.80;99.90;;;;;;5069315;28;20425;-82
2022/05/18 00:59:10;;;;;;;4.53;4.13;;;18.80;99.90;;;;;;5078021;28;20398;-83
2022/05/18 01:01:56;;;;;;;12.00;3.43;;;18.80;99.90;;;;;;5076423;28;20442;-83
2022/05/18 01:04:44;;;;;;;4.10;3.70;;;18.80;99.90;;;;;;5073749;28;20526;-82
2022/05/18 01:07:34;;;;;;;7.27;3.30;;;18.80;99.90;;;;;;5080501;28;20951;-83
2022/05/18 01:10:20;;;;;;;3.20;2.90;;;18.80;99.90;;;;;;5079866;28;20862;-84
2022/05/18 01:13:06;;;;;;;3.57;3.27;;;18.80;99.90;;;;;;5080430;28;20413;-83
2022/05/18 01:15:51;;;;;;;6.80;4.03;;;18.90;99.90;;;;;;5080321;28;20420;-83
2022/05/18 01:18:36;;;;;;;4.60;3.10;;;18.90;99.90;;;;;;5079986;28;20388;-83
2022/05/18 01:21:23;;;;;;;4.80;4.40;;;18.90;99.90;;;;;;5080471;28;20889;-83
2022/05/18 01:24:17;;;;;;;8.03;4.23;;;19.00;99.90;;;;;;5080231;28;20491;-83
2022/05/18 01:27:02;;;;;;;3.70;3.27;;;19.00;99.90;;;;;;5079870;28;20389;-83
2022/05/18 01:29:47;;;;;;;3.93;3.50;;;19.00;99.90;;;;;;5079741;28;20749;-83
2022/05/18 01:32:51;;;;;;;4.20;3.63;;;18.90;99.90;;;;;;5079736;28;20409;-83
2022/05/18 01:35:39;;;;;;;3.60;3.30;;;18.90;99.90;;;;;;5078713;28;20385;-83
2022/05/18 01:38:24;;;;;;;5.03;3.43;;;18.90;99.90;;;;;;5079879;28;20800;-83
2022/05/18 01:41:17;;;;;;;9.03;3.67;;;18.60;99.90;;;;;;5064171;28;20393;-83
2022/05/18 01:44:02;;;;;;;4.50;3.50;;;18.50;99.90;;;;;;5079477;28;20436;-83
2022/05/18 01:46:48;;;;;;;5.77;3.97;;;18.70;99.90;;;;;;5079456;28;20388;-83
2022/05/18 01:49:34;;;;;;;4.50;4.00;;;18.80;99.90;;;;;;5079254;28;20996;-83
2022/05/18 01:52:19;;;;;;;4.37;3.87;;;18.80;99.90;;;;;;5079478;28;20385;-83
2022/05/18 01:55:06;;;;;;;3.60;3.30;;;18.70;99.90;;;;;;5079348;28;20421;-83
2022/05/18 01:57:50;;;;;;;4.30;3.90;;;18.70;99.90;;;;;;5080148;28;20424;-83
2022/05/18 02:00:35;;;;;;;5.13;3.73;;;18.60;99.90;;;;;;5078954;28;20401;-83
2022/05/18 02:03:21;;;;;;;5.10;3.33;;;18.50;99.90;;;;;;5078796;28;20439;-83
2022/05/18 02:06:06;;;;;;;4.10;3.70;;;18.50;99.90;;;;;;5064374;28;20471;-83
2022/05/18 02:08:51;;;;;;;4.47;4.07;;;18.60;99.90;;;;;;5080107;28;20392;-83
2022/05/18 02:11:36;;;;;;;6.53;3.80;;;18.60;99.90;;;;;;5064596;28;20400;-83
2022/05/18 02:14:22;;;;;;;3.77;3.47;;;18.60;99.90;;;;;;5093325;28;20381;-81
2022/05/18 02:17:07;;;;;;;8.93;4.13;;;18.60;99.90;;;;;;5082253;28;20389;-83
2022/05/18 02:19:52;;;;;;;5.17;4.23;;;18.60;99.90;;;;;;5068541;28;20403;-82
2022/05/18 02:22:37;;;;;;;6.53;4.30;;;18.60;99.90;;;;;;5097053;28;20428;-82
2022/05/18 02:25:22;;;;;;;8.33;5.23;;;18.60;99.90;;;;;;5096995;28;20467;-83
2022/05/18 02:28:07;;;;;;;5.07;4.60;;;18.70;99.90;;;;;;5070021;28;20420;-83
2022/05/18 02:30:51;;;;;;;12.27;5.07;;;18.60;99.90;;;;;;5083639;28;20388;-83
2022/05/18 02:33:36;;;;;;;6.50;4.18;;;18.70;99.90;;;;;;5086856;28;20416;-83
2022/05/18 02:36:23;;;;;;;5.23;4.83;;;18.70;99.90;;;;;;5081046;28;20596;-83
2022/05/18 02:39:08;;;;;;;4.30;3.90;;;18.70;99.90;;;;;;5079756;28;20393;-83
2022/05/18 02:41:52;;;;;;;4.57;4.00;;;18.60;99.90;;;;;;5081458;28;20443;-83
2022/05/18 02:44:37;;;;;;;7.90;3.97;;;18.50;99.90;;;;;;5084489;28;20448;-83
2022/05/18 02:47:23;;;;;;;6.00;4.27;;;18.20;99.90;;;;;;5097230;28;20397;-83
2022/05/18 02:50:08;;;;;;;6.70;4.30;;;18.00;99.90;;;;;;5097525;28;20448;-80
2022/05/18 02:52:53;;;;;;;4.70;4.30;;;17.90;99.90;;;;;;5096406;28;20404;-83
2022/05/18 02:58:42;;;;;;;8.60;5.50;;;17.70;99.90;;;;;;5081084;28;20431;-84
2022/05/18 03:01:28;;;;;;;4.60;3.90;;;17.80;99.90;;;;;;5082417;28;20405;-82
2022/05/18 03:04:13;;;;;;;6.00;4.80;;;17.70;99.90;;;;;;5068294;28;21087;-83
2022/05/18 03:06:59;;;;;;;6.57;4.37;;;17.60;99.90;;;;;;5066852;28;20385;-83
2022/05/18 03:09:46;;;;;;;6.40;5.80;;;17.70;99.90;;;;;;5081419;28;20395;-83
2022/05/18 03:12:31;;;;;;;4.60;4.20;;;17.80;99.90;;;;;;5081713;28;20447;-83
2022/05/18 03:15:15;;;;;;;7.17;5.40;;;18.00;99.90;;;;;;5082391;28;20389;-83
2022/05/18 03:18:04;;;;;;;5.33;4.57;;;18.10;99.90;;;;;;5081561;28;20909;-83
2022/05/18 03:23:50;;;;;;;4.60;4.20;;;17.80;99.90;;;;;;5081534;28;20389;-83
2022/05/18 03:26:36;;;;;;;6.83;3.97;;;17.80;99.90;;;;;;5081575;28;20401;-83
2022/05/18 03:29:22;;;;;;;5.10;4.20;;;17.60;99.90;;;;;;5084450;28;20385;-82
2022/05/18 03:32:10;;;;;;;5.23;4.73;;;17.50;99.90;;;;;;5084407;28;20389;-82
2022/05/18 03:34:54;;;;;;;5.60;4.40;;;17.40;99.90;;;;;;5070576;28;20451;-83
2022/05/18 03:37:39;;;;;;;6.70;4.47;;;17.40;99.90;;;;;;5081385;28;20385;-83
2022/05/18 03:40:23;;;;;;;6.97;4.83;;;17.30;99.90;;;;;;5081370;28;20469;-83
2022/05/18 03:43:08;;;;;;;7.87;4.97;;;17.30;99.90;;;;;;5081142;28;20413;-83
2022/05/18 03:45:52;;;;;;;7.87;5.40;;;17.30;99.90;;;;;;5073906;28;20450;-84
2022/05/18 03:48:40;;;;;;;7.27;5.20;;;17.40;99.90;;;;;;5072149;28;20776;-82
2022/05/18 03:51:26;;;;;;;6.70;4.53;;;17.40;99.90;;;;;;5027511;28;20417;-82
2022/05/18 03:54:11;;;;;;;6.00;4.00;;;17.30;99.90;;;;;;5061250;28;20474;-83
2022/05/18 03:56:56;;;;;;;5.40;4.87;;;17.40;99.90;;;;;;5061045;28;20449;-83
2022/05/18 03:59:41;;;;;;;5.70;5.20;;;17.40;99.90;;;;;;5060962;28;20479;-83
2022/05/18 04:02:25;;;;;;;6.33;5.10;;;17.40;99.90;;;;;;5061013;28;20393;-83
2022/05/18 04:05:11;;;;;;;6.47;5.03;;;17.40;99.90;;;;;;5059899;28;20469;-83
2022/05/18 04:07:55;;;;;;;5.43;4.93;;;17.40;99.90;;;;;;5046024;28;20413;-83
2022/05/18 04:10:40;;;;;;;7.00;4.70;;;17.40;99.90;;;;;;5061697;28;20401;-82
2022/05/18 04:13:25;;;;;;;4.40;4.00;;;17.40;99.90;;;;;;5061217;28;20894;-83
2022/05/18 04:16:10;;;;;;;8.80;5.10;;;17.30;99.90;;;;;;5071761;28;20420;-83
2022/05/18 04:18:54;;;;;;;5.23;4.57;;;17.40;99.90;;;;;;5079022;28;20458;-83
2022/05/18 04:21:39;;;;;;;5.20;4.80;;;17.40;99.90;;;;;;5066315;28;20779;-83
2022/05/18 04:24:23;;;;;;;5.10;4.60;;;17.50;99.90;;;;;;5081575;28;20488;-83
2022/05/18 04:27:07;;;;;;;12.60;7.10;;;17.50;99.90;;;;;;5082486;28;20732;-83
2022/05/18 04:29:53;;;;;;;5.50;4.73;;;17.50;99.90;;;;;;5076938;28;20378;-83
2022/05/18 04:32:38;;;;;;;8.00;5.27;;;17.60;99.90;;;;;;5077753;28;20405;-83
2022/05/18 04:35:25;;;;;;;8.53;5.80;;;17.80;99.90;;;;;;5081427;28;20416;-83
2022/05/18 04:38:10;;;;;;;5.03;4.53;;;18.00;99.90;;;;;;5081798;28;20389;-83
2022/05/18 04:40:54;;;;;;;9.43;5.03;;;18.20;99.90;;;;;;5079526;28;20880;-83
2022/05/18 04:43:39;;;;;;;9.57;5.10;;;18.20;99.90;;;;;;5081349;28;20381;-83
2022/05/18 04:46:24;;;;;;;4.97;4.57;;;18.30;99.90;;;;;;5052016;28;20388;-83
2022/05/18 04:49:12;;;;;;;6.20;5.03;;;18.40;99.90;;;;;;5070084;28;20421;-83
2022/05/18 04:51:57;;;;;;;8.90;6.33;;;18.50;99.90;;;;;;5078896;28;20440;-82
2022/05/18 04:54:41;;;;;;;9.03;5.03;;;18.60;99.90;;;;;;5064294;28;20489;-84
2022/05/18 04:57:26;;;;;;;6.03;5.47;;;18.50;99.90;;;;;;5078966;28;20490;-83
2022/05/18 05:00:13;;;;;;;6.93;4.70;;;18.60;99.90;;;;;;5060817;28;20405;-83
2022/05/18 05:02:58;;;;;;;6.70;5.40;;;18.80;99.90;;;;;;5073060;28;20463;-82
2022/05/18 05:05:43;;;;;;;5.47;4.97;;;18.80;99.90;;;;;;5077303;28;20460;-84
2022/05/18 05:08:28;;;;;;;8.80;5.20;;;18.80;99.90;;;;;;5075026;28;20520;-82
2022/05/18 05:11:15;;;;;;;6.40;4.83;;;18.90;99.90;;;;;;5076276;28;20823;-83
2022/05/18 05:14:00;;;;;;;5.60;5.10;;;18.80;99.90;;;;;;5072588;28;20419;-83
2022/05/18 05:16:47;;;;;;;9.33;4.60;;;18.80;99.90;;;;;;5048796;28;20418;-84
2022/05/18 05:19:31;;;;;;;12.80;6.17;;;18.80;99.90;;;;;;5047575;28;20429;-83
2022/05/18 05:22:19;;;;;;;6.17;5.57;;;18.80;99.90;;;;;;5081663;28;20393;-83
2022/05/18 05:25:04;;;;;;;5.77;5.27;;;18.80;99.90;;;;;;5063554;28;20464;-82
2022/05/18 05:27:58;;;;;;;5.90;5.40;;;18.60;99.90;;;;;;5080462;28;20846;-82
2022/05/18 05:30:43;;;;;;;7.17;6.10;;;18.50;99.90;;;;;;5051419;28;20809;-84
2022/05/18 05:33:28;;;;;;;5.53;5.03;;;18.50;99.90;;;;;;5079278;28;20436;-83
2022/05/18 05:36:12;;;;;;;7.10;6.40;;;18.70;99.90;;;;;;5073085;28;20703;-83
2022/05/18 05:38:57;;;;;;;10.40;6.47;;;18.90;99.90;;;;;;5061130;28;20451;-84
2022/05/18 05:41:42;;;;;;;8.00;5.90;;;19.00;99.90;;;;;;5067118;28;20421;-84
2022/05/18 05:44:41;;;;;;;10.90;6.43;;;19.10;99.90;;;;;;5054980;28;20452;-84
2022/05/18 05:47:25;;;;;;;11.63;7.37;;;19.20;99.90;;;;;;5066487;28;20424;-85
2022/05/18 05:50:13;;;;;;;9.53;7.53;;;19.30;99.90;;;;;;5079539;28;20444;-84
2022/05/18 05:52:59;;;;;;;7.90;7.20;;;19.30;99.90;;;;;;5084103;28;20408;-84
2022/05/18 05:55:43;;;;;;;8.20;6.10;;;19.30;99.90;;;;;;5062612;28;20439;-83
2022/05/18 05:58:33;;;;;;;8.17;6.50;;;19.30;99.90;;;;;;5078340;28;20419;-85
2022/05/18 06:01:18;;;;;;;7.13;6.43;;;19.30;99.90;;;;;;5079819;28;20433;-85
2022/05/18 06:04:07;;;;;;;13.67;7.13;;;19.30;99.90;;;;;;5073234;28;20475;-84
2022/05/18 06:06:51;;;;;;;11.40;6.90;;;19.40;99.90;;;;;;5035589;28;20418;-85
2022/05/18 06:09:36;;;;;;;11.47;8.40;;;19.40;99.90;;;;;;5023365;28;20429;-83
2022/05/18 06:12:20;;;;;;;13.43;7.07;;;19.10;99.90;;;;;;5032206;28;20474;-84
2022/05/18 06:15:06;;;;;;;7.30;6.70;;;18.80;99.90;;;;;;5036847;28;20843;-84
2022/05/18 06:17:51;;;;;;;7.57;6.90;;;18.70;99.90;;;;;;5037350;28;20447;-84
2022/05/18 06:20:39;;;;;;;8.80;6.93;;;18.70;99.90;;;;;;5038119;28;20431;-86
2022/05/18 06:23:24;;;;;;;8.40;7.03;;;18.80;99.90;;;;;;5018361;28;20585;-85
2022/05/18 06:26:16;;;;;;;7.73;7.00;;;18.80;99.90;;;;;;5037653;28;20458;-86
2022/05/18 06:29:01;;;;;;;9.87;8.60;;;18.90;99.90;;;;;;5008689;28;20454;-81
2022/05/18 06:31:46;;;;;;;13.83;6.60;;;18.80;99.90;;;;;;5030632;28;20467;-84
2022/05/18 06:34:30;;;;;;;7.20;6.47;;;18.70;99.90;;;;;;5029285;28;20566;-85
2022/05/18 06:37:15;;;;;;;12.33;8.33;;;18.90;99.90;;;;;;5035868;28;20428;-84
2022/05/18 06:40:02;;;;;;;7.90;7.10;;;19.00;99.90;;;;;;5082233;28;20428;-86
2022/05/18 06:42:47;;;;;;;10.53;7.53;;;18.90;99.90;;;;;;5082678;28;20470;-84
2022/05/18 06:45:31;;;;;;;10.03;6.60;;;19.00;99.90;;;;;;5089345;28;20552;-84
2022/05/18 06:48:16;;;;;;;13.13;8.17;;;18.80;99.90;;;;;;5069580;28;20542;-84
2022/05/18 06:51:01;;;;;;;7.57;6.87;;;18.80;99.90;;;;;;5082949;28;20412;-83
2022/05/18 06:54:06;;;;;;;8.10;7.40;;;18.80;99.90;;;;;;5036769;28;20444;-84
2022/05/18 06:56:50;;;;;;;10.70;9.57;;;18.80;99.90;;;;;;5030892;28;20442;-84
2022/05/18 06:59:36;;;;;;;7.23;6.63;;;18.80;99.90;;;;;;5035795;28;20466;-85
2022/05/18 07:02:22;;;;;;;7.60;6.90;;;18.90;99.90;;;;;;5035450;28;20535;-84
2022/05/18 07:05:07;;;;;;;8.20;5.97;;;18.90;99.90;;;;;;5037178;28;20584;-84
2022/05/18 07:07:52;;;;;;;11.40;8.33;;;18.90;99.90;;;;;;5037886;28;20429;-84
2022/05/18 07:10:36;;;;;;;9.53;7.30;;;18.80;99.90;;;;;;5015330;28;20519;-82
2022/05/18 07:13:20;;;;;;;10.67;6.93;;;19.00;99.90;;;;;;5038381;28;20602;-82
2022/05/18 07:16:06;;;;;;;10.20;6.83;;;18.90;99.90;;;;;;5028836;28;20433;-84
2022/05/18 07:18:51;;;;;;;11.37;7.90;;;18.90;99.90;;;;;;5015757;28;20450;-83
2022/05/18 07:21:36;;;;;;;20.87;8.80;;;19.20;99.90;;;;;;5025680;28;20570;-84
2022/05/18 07:24:22;;;;;;;7.43;6.83;;;19.40;99.90;;;;;;5024795;28;20571;-84
2022/05/18 07:27:06;;;;;;;8.93;8.00;;;19.50;99.90;;;;;;5052374;28;20447;-85
2022/05/18 07:29:51;;;;;;;8.70;7.47;;;19.20;99.90;;;;;;5071230;28;21030;-84
2022/05/18 07:32:37;;;;;;;7.80;7.10;;;19.60;99.90;;;;;;5086428;28;20452;-83
2022/05/18 07:35:24;;;;;;;8.73;7.73;;;19.60;99.90;;;;;;5092727;28;20463;-84
2022/05/18 07:38:10;;;;;;;9.80;6.73;;;19.50;99.90;;;;;;5078666;28;20429;-83
2022/05/18 07:40:56;;;;;;;8.73;7.83;;;19.90;99.90;;;;;;5067396;28;20498;-81
2022/05/18 07:43:42;;;;;;;8.13;6.37;;;20.00;99.90;;;;;;5081432;28;20539;-84
2022/05/18 07:46:27;;;;;;;8.60;7.70;;;19.90;99.90;;;;;;5080493;28;20503;-83
2022/05/18 07:49:12;;;;;;;17.20;7.20;;;19.90;99.90;;;;;;5064087;28;20424;-81
2022/05/18 07:51:59;;;;;;;10.73;7.63;;;20.00;99.90;;;;;;5065926;28;20435;-80
2022/05/18 07:54:47;;;;;;;8.30;7.60;;;20.10;99.90;;;;;;5063864;28;20471;-81
2022/05/18 07:57:33;;;;;;;11.70;8.93;;;20.00;99.90;;;;;;5051393;28;20940;-84
2022/05/18 08:00:19;;;;;;;8.93;6.70;;;20.30;99.90;;;;;;5050857;28;20456;-83
2022/05/18 08:03:12;;;;;;;7.20;6.60;;;20.20;99.90;;;;;;5065066;28;20768;-82
2022/05/18 08:06:00;;;;;;;7.60;6.90;;;20.40;99.90;;;;;;5043430;28;20480;-83
2022/05/18 08:08:45;;;;;;;7.10;6.50;;;20.50;99.90;;;;;;4991420;28;20463;-83
2022/05/18 08:17:31;;;;;;;8.87;8.03;;;20.60;99.90;;;;;;5013935;28;20447;-80
2022/05/18 08:20:21;;;;;;;8.47;7.67;;;20.60;99.90;;;;;;5015430;28;20529;-83
2022/05/18 08:23:07;;;;;;;10.37;7.33;;;20.80;99.90;;;;;;5011750;28;20443;-84
2022/05/18 08:25:55;;;;;;;8.83;8.00;;;20.80;99.90;;;;;;4994454;28;21086;-83
2022/05/18 08:28:40;;;;;;;8.30;7.50;;;21.00;99.90;;;;;;4986376;28;20559;-83
2022/05/18 08:31:25;;;;;;;17.70;10.13;;;20.60;99.90;;;;;;5020423;28;20450;-83
2022/05/18 08:34:15;;;;;;;9.23;8.30;;;21.20;99.90;;;;;;5020366;28;20452;-84
2022/05/18 08:37:00;;;;;;;12.40;7.90;;;21.10;99.90;;;;;;4997879;28;20458;-83
2022/05/18 08:39:48;;;;;;;11.03;8.50;;;21.10;99.90;;;;;;5045479;28;20972;-84
2022/05/18 08:42:35;;;;;;;8.67;7.97;;;21.20;99.90;;;;;;5055950;28;20414;-84
2022/05/18 08:45:20;;;;;;;7.60;7.00;;;21.20;99.90;;;;;;5044474;28;20464;-83
2022/05/18 08:48:26;;;;;;;9.57;7.97;;;21.20;99.90;;;;;;5054562;28;20498;-83
2022/05/18 08:51:24;;;;;;;9.37;7.30;;;21.60;99.90;;;;;;5053693;28;20487;-84
2022/05/18 08:54:25;;;;;;;8.37;7.53;;;21.50;99.90;;;;;;5035603;28;20823;-83
2022/05/18 08:57:24;;;;;;;7.90;7.20;;;21.40;99.90;;;;;;5057465;28;20433;-82
2022/05/18 09:03:44;;;;;;;8.90;8.00;;;21.70;99.90;;;;;;4993161;28;20475;-84
2022/05/18 09:06:37;;;;;;;7.70;7.00;;;22.00;99.90;;;;;;4992839;28;20439;-84
2022/05/18 09:12:45;;;;;;;8.13;7.33;;;22.20;99.90;;;;;;4998080;28;20439;-82
2022/05/18 09:15:48;;;;;;;7.83;7.23;;;21.90;99.90;;;;;;4992444;28;20451;-81
2022/05/18 09:18:49;;;;;;;8.13;7.33;;;22.00;99.90;;;;;;4995684;28;20458;-83
2022/05/18 09:22:09;;;;;;;9.33;7.20;;;21.90;99.90;;;;;;4996853;28;20489;-82
2022/05/18 09:25:18;;;;;;;7.60;6.90;;;21.90;99.90;;;;;;5000694;28;20547;-82
2022/05/18 09:28:28;;;;;;;7.30;6.60;;;21.90;99.90;;;;;;5008839;28;20425;-82
2022/05/18 09:31:34;;;;;;;6.53;5.93;;;22.00;99.90;;;;;;5036160;28;20481;-83
2022/05/18 09:34:43;;;;;;;6.63;6.00;;;22.30;99.90;;;;;;5055216;28;20422;-84
2022/05/18 09:37:36;;;;;;;7.37;6.50;;;22.30;99.90;;;;;;5021228;28;20490;-84
2022/05/18 09:40:28;;;;;;;6.87;6.20;;;22.50;99.90;;;;;;5043153;28;20485;-83
2022/05/18 09:43:35;;;;;;;11.33;6.67;;;23.00;99.90;;;;;;5057275;28;20447;-85
2022/05/18 09:46:23;;;;;;;6.77;6.07;;;23.40;99.90;;;;;;5054267;28;20468;-85
2022/05/18 09:49:17;;;;;;;6.80;6.20;;;23.10;99.90;;;;;;5054483;28;20457;-85
2022/05/18 09:52:04;;;;;;;7.50;5.60;;;23.40;99.90;;;;;;5045722;28;20430;-85
2022/05/18 09:54:53;;;;;;;6.80;6.30;;;23.60;99.90;;;;;;5051713;28;20494;-83
2022/05/18 09:57:54;;;;;;;6.70;5.93;;;24.00;99.90;;;;;;5043407;28;20480;-83
2022/05/18 10:00:40;;;;;;;7.93;6.07;;;23.70;99.90;;;;;;5044382;28;20473;-80
2022/05/18 10:09:28;;;;;;;5.47;4.97;;;23.70;99.90;;;;;;5027059;28;20452;-81
2022/05/18 10:12:21;;;;;;;6.37;5.87;;;23.70;99.90;;;;;;5026270;28;20418;-81
2022/05/18 10:15:28;;;;;;;6.17;5.57;;;23.40;99.90;;;;;;5044743;28;20766;-82
2022/05/18 10:18:29;;;;;;;7.37;5.63;;;23.80;99.90;;;;;;5059660;28;20997;-82
2022/05/18 10:21:38;;;;;;;5.60;5.10;;;23.50;99.90;;;;;;5028359;28;20601;-83
2022/05/18 10:24:27;;;;;;;7.60;5.53;;;23.80;99.90;;;;;;5038259;28;20544;-83
2022/05/18 10:27:35;;;;;;;6.20;5.70;;;24.10;99.90;;;;;;5058896;28;20980;-81
2022/05/18 10:30:29;;;;;;;6.50;5.90;;;23.90;99.90;;;;;;5034160;28;20473;-84
2022/05/18 10:33:23;;;;;;;8.17;5.50;;;24.00;99.90;;;;;;5048356;28;20457;-82
2022/05/18 10:36:13;;;;;;;9.87;5.83;;;24.40;99.90;;;;;;5033520;28;20512;-82
2022/05/18 10:39:00;;;;;;;4.93;4.53;;;24.70;99.90;;;;;;5043165;28;20516;-83
2022/05/18 10:41:47;;;;;;;7.10;5.23;;;24.50;99.90;;;;;;5043431;28;20472;-84
2022/05/18 10:44:35;;;;;;;5.93;5.43;;;24.20;99.90;;;;;;5041568;28;20804;-83
2022/05/18 10:47:29;;;;;;;6.13;5.47;;;24.10;99.90;;;;;;5050288;28;20745;-83
2022/05/18 10:50:32;;;;;;;4.07;3.77;;;24.40;99.90;;;;;;5057031;28;20425;-82
2022/05/18 10:53:36;;;;;;;6.80;4.53;;;24.40;99.90;;;;;;5054573;28;20449;-83
2022/05/18 10:56:37;;;;;;;6.70;5.63;;;24.40;99.90;;;;;;5034646;28;20460;-83
2022/05/18 10:59:42;;;;;;;5.63;5.23;;;24.50;99.90;;;;;;5009763;28;20441;-81
2022/05/18 11:02:36;;;;;;;4.83;4.43;;;24.90;99.90;;;;;;5037162;28;20777;-82
2022/05/18 11:05:39;;;;;;;9.00;5.27;;;25.00;99.90;;;;;;5040160;28;20486;-83
2022/05/18 11:08:28;;;;;;;9.63;4.67;;;24.90;99.90;;;;;;5055997;28;20428;-81
2022/05/18 11:11:44;;;;;;;6.80;4.87;;;24.70;99.90;;;;;;5041422;28;20472;-81
2022/05/18 11:15:03;;;;;;;5.90;3.73;;;25.20;99.90;;;;;;5054111;28;20545;-79
2022/05/18 11:18:23;;;;;;;2.90;2.70;;;25.40;99.90;;;;;;5048318;28;20437;-79
2022/05/18 11:21:23;;;;;;;4.07;3.67;;;25.20;99.90;;;;;;5050270;28;20448;-80
2022/05/18 11:24:16;;;;;;;5.07;3.70;;;25.70;99.90;;;;;;5057661;28;20429;-80
2022/05/18 11:27:36;;;;;;;4.50;4.10;;;25.80;99.90;;;;;;5044173;28;20483;-81
2022/05/18 11:30:40;;;;;;;9.80;3.17;;;26.10;99.90;;;;;;5061012;28;20425;-79
2022/05/18 11:33:36;;;;;;;3.80;3.43;;;26.40;99.90;;;;;;5046771;28;20444;-80
2022/05/18 11:36:37;;;;;;;2.80;2.60;;;25.90;99.60;;;;;;5047694;28;20429;-80
2022/05/18 11:39:46;;;;;;;3.23;2.40;;;26.10;99.10;;;;;;5028894;28;20924;-80
2022/05/18 11:43:25;;;;;;;4.40;2.70;;;27.20;95.60;;;;;;5047722;28;20479;-80
2022/05/18 11:46:37;;;;;;;2.67;2.47;;;26.70;96.20;;;;;;5045909;28;20509;-80
2022/05/18 11:49:37;;;;;;;4.10;2.73;;;27.80;94.40;;;;;;5052684;28;20433;-80
2022/05/18 11:52:39;;;;;;;2.90;2.67;;;27.40;92.60;;;;;;5061701;28;20421;-81
2022/05/18 11:55:41;;;;;;;3.40;2.90;;;27.90;91.30;;;;;;5041131;28;20443;-84
2022/05/18 11:58:52;;;;;;;3.70;3.40;;;28.10;91.30;;;;;;5025257;28;20467;-80
2022/05/18 12:02:02;;;;;;;4.00;3.70;;;27.60;91.10;;;;;;5042957;28;20544;-82
2022/05/18 12:05:10;;;;;;;3.43;3.23;;;28.00;91.50;;;;;;5021680;28;20231;-81
2022/05/18 12:08:27;;;;;;;7.68;3.65;;;28.00;90.80;;;;;;5003150;28;20296;-80
2022/05/18 12:11:30;;;;;;;5.50;3.30;;;28.10;91.90;;;;;;4992344;28;20208;-81
2022/05/18 12:14:52;;;;;;;3.80;2.80;;;28.20;89.90;;;;;;5008672;28;20371;-80
2022/05/18 12:17:46;;;;;;;3.53;3.22;;;28.90;85.40;;;;;;4990894;28;20223;-82
2022/05/18 12:20:50;;;;;;;5.35;3.95;;;29.50;85.80;;;;;;5012214;28;20196;-83
2022/05/18 12:23:47;;;;;;;4.90;4.50;;;29.10;85.00;;;;;;5002021;28;20200;-82
2022/05/18 12:26:39;;;;;;;4.97;3.35;;;29.60;86.30;;;;;;5014176;28;20217;-81
2022/05/18 12:29:32;;;;;;;3.67;3.28;;;29.70;83.90;;;;;;5008706;28;20676;-81
2022/05/18 12:32:18;;;;;;;3.58;3.28;;;29.30;84.00;;;;;;5003760;28;20555;-80
2022/05/18 12:35:16;;;;;;;4.25;3.90;;;28.90;84.40;;;;;;5006607;28;20200;-80
2022/05/18 12:38:12;;;;;;;3.90;3.60;;;28.70;86.10;;;;;;5015165;28;20277;-79
2022/05/18 12:41:06;;;;;;;4.68;4.22;;;29.10;85.90;;;;;;5017597;28;20204;-84
2022/05/18 12:44:09;;;;;;;4.38;3.97;;;29.50;82.90;;;;;;5003542;28;20199;-83
2022/05/18 12:47:02;;;;;;;4.63;4.22;;;30.90;78.70;;;;;;5020753;28;20268;-81
2022/05/18 12:50:10;;;;;;;4.38;3.15;;;30.40;79.20;;;;;;4979979;28;20225;-82
2022/05/18 12:53:18;;;;;;;4.13;3.72;;;29.30;80.10;;;;;;4969419;28;20229;-83
2022/05/18 12:56:16;;;;;;;5.17;4.77;;;28.20;86.50;;;;;;4941265;29;20226;-82
2022/05/18 12:59:06;;;;;;;4.20;3.90;;;27.70;87.70;;;;;;4945058;28;20190;-82
2022/05/18 13:02:08;;;;;;;3.83;3.53;;;27.80;87.40;;;;;;4959342;28;20486;-81
2022/05/18 13:04:52;;;;;;;3.77;3.47;;;28.40;84.70;;;;;;4946429;28;20476;-80
2022/05/18 13:08:17;;;;;;;3.80;3.50;;;30.10;84.30;;;;;;4941009;28;20426;-81
2022/05/18 13:11:23;;;;;;;4.70;4.30;;;31.00;78.40;;;;;;4961645;28;20237;-81
2022/05/18 13:14:25;;;;;;;3.90;3.60;;;29.70;77.70;;;;;;4960481;28;20232;-81
2022/05/18 13:17:16;;;;;;;4.00;3.70;;;29.00;79.40;;;;;;4963410;28;20403;-82
2022/05/18 13:20:27;;;;;;;3.97;3.47;;;28.40;82.30;;;;;;4967193;28;20247;-80
2022/05/18 13:23:24;;;;;;;3.53;3.23;;;29.10;80.00;;;;;;5004073;28;20187;-81
2022/05/18 13:26:22;;;;;;;4.30;4.00;;;28.10;83.20;;;;;;5009771;28;20214;-81
2022/05/18 13:29:13;;;;;;;3.53;3.23;;;28.10;84.80;;;;;;5028675;28;20470;-81
2022/05/18 13:32:03;;;;;;;4.17;3.77;;;28.50;83.70;;;;;;5040188;28;20421;-81
2022/05/18 13:34:52;;;;;;;4.07;3.40;;;27.70;83.40;;;;;;5031958;28;20768;-82
2022/05/18 13:37:39;;;;;;;4.37;3.97;;;28.00;84.30;;;;;;5023887;28;20436;-82
2022/05/18 13:40:26;;;;;;;5.80;3.73;;;27.40;85.50;;;;;;5029061;28;20468;-82
2022/05/18 13:43:14;;;;;;;4.63;3.40;;;27.30;86.00;;;;;;5041596;28;20432;-82
2022/05/18 13:46:05;;;;;;;6.60;4.10;;;27.60;86.90;;;;;;5029585;28;20440;-82
2022/05/18 13:48:58;;;;;;;4.53;3.93;;;27.70;89.50;;;;;;5049537;28;20429;-79
2022/05/18 13:51:48;;;;;;;4.17;3.77;;;27.10;89.70;;;;;;5019146;28;20468;-81
2022/05/18 13:54:39;;;;;;;4.10;3.67;;;26.40;90.00;;;;;;5052551;28;20484;-84
2022/05/18 13:57:29;;;;;;;4.13;3.83;;;26.70;91.00;;;;;;5020000;28;20429;-82
2022/05/18 14:00:24;;;;;;;4.87;4.37;;;26.80;92.40;;;;;;5059274;28;20537;-83
2022/05/18 14:03:15;;;;;;;5.80;3.40;;;26.40;90.70;;;;;;5055880;28;20437;-82
2022/05/18 14:06:06;;;;;;;4.57;3.63;;;26.60;91.30;;;;;;5026946;28;20903;-84
2022/05/18 14:08:58;;;;;;;4.17;3.83;;;27.30;90.30;;;;;;5028212;28;20484;-84
2022/05/18 14:11:43;;;;;;;3.60;3.30;;;27.90;90.10;;;;;;5044558;28;20429;-83
2022/05/18 14:14:31;;;;;;;10.33;3.97;;;28.10;88.60;;;;;;5064149;28;20503;-84
2022/05/18 14:17:20;;;;;;;7.73;4.40;;;28.80;86.80;;;;;;5059611;28;20428;-80
2022/05/18 14:20:16;;;;;;;8.87;3.47;;;28.60;87.00;;;;;;5060168;28;20452;-79
2022/05/18 14:23:04;;;;;;;3.80;3.50;;;28.60;86.10;;;;;;5042544;28;20429;-82
2022/05/18 14:25:53;;;;;;;3.80;3.60;;;29.40;87.50;;;;;;5044784;28;20413;-83
2022/05/18 14:28:43;;;;;;;4.20;3.90;;;28.80;83.00;;;;;;5039416;28;20228;-81
2022/05/18 14:31:30;;;;;;;6.80;3.70;;;28.80;83.30;;;;;;5037142;28;20256;-81
2022/05/18 14:34:35;;;;;;;3.73;3.07;;;28.80;85.60;;;;;;5034069;28;20182;-85
2022/05/18 14:37:28;;;;;;;6.10;3.80;;;29.10;85.90;;;;;;4991909;28;20205;-84
2022/05/18 14:40:20;;;;;;;3.53;3.28;;;28.90;81.70;;;;;;5041490;28;20200;-85
2022/05/18 14:43:05;;;;;;;3.78;3.17;;;29.10;80.70;;;;;;5037350;28;20201;-83
2022/05/18 14:45:54;;;;;;;3.95;3.47;;;28.90;79.90;;;;;;5050629;28;20201;-84
2022/05/18 14:48:47;;;;;;;5.63;3.55;;;29.30;79.40;;;;;;5026056;28;20195;-83
2022/05/18 14:51:45;;;;;;;3.78;2.90;;;29.10;82.10;;;;;;5041750;28;20183;-85
2022/05/18 14:54:34;;;;;;;4.03;3.67;;;29.40;74.40;;;;;;5049204;28;20214;-84
2022/05/18 14:57:26;;;;;;;7.80;4.07;;;28.50;76.80;;;;;;5039439;28;20228;-84
2022/05/18 15:00:19;;;;;;;3.47;3.27;;;28.80;75.90;;;;;;5058257;28;20182;-85
2022/05/18 15:03:09;;;;;;;4.10;3.70;;;29.50;79.20;;;;;;5058204;28;20285;-81
2022/05/18 15:05:57;;;;;;;3.60;3.30;;;29.20;80.40;;;;;;5058766;28;20206;-84
2022/05/18 15:08:52;;;;;;;4.47;4.10;;;29.60;75.80;;;;;;5050039;28;20717;-84
2022/05/18 15:11:43;;;;;;;4.18;3.88;;;30.40;73.80;;;;;;5061092;28;20522;-83